createdAt,value
2018-10-05T00:00:35.934Z,13.77
2018-10-05T00:03:04.082Z,13.63
2018-10-05T00:05:32.272Z,14.70
2018-10-05T00:08:00.434Z,14.43
2018-10-05T00:10:28.571Z,14.97
2018-10-05T00:12:56.707Z,15.13
2018-10-05T00:15:24.827Z,14.40
2018-10-05T00:17:52.958Z,14.87
2018-10-05T00:20:21.120Z,13.87
2018-10-05T00:22:49.276Z,12.67
2018-10-05T00:25:17.408Z,14.57
2018-10-05T00:27:45.540Z,14.40
2018-10-05T00:30:13.692Z,14.30
2018-10-05T00:32:41.815Z,14.03
2018-10-05T00:35:09.959Z,15.30
2018-10-05T00:37:38.094Z,15.23
2018-10-05T00:40:06.442Z,14.97
2018-10-05T00:42:34.612Z,16.17
2018-10-05T00:45:02.749Z,10.07
2018-10-05T00:47:30.890Z,14.37
2018-10-05T00:49:59.054Z,15.83
2018-10-05T00:52:27.186Z,15.87
2018-10-05T00:54:55.335Z,15.27
2018-10-05T00:57:23.475Z,15.63
2018-10-05T00:59:51.642Z,17.00
2018-10-05T01:02:19.771Z,16.33
2018-10-05T01:04:47.919Z,15.30
2018-10-05T01:07:16.059Z,16.27
2018-10-05T01:09:44.174Z,16.53
2018-10-05T01:12:12.331Z,16.57
2018-10-05T01:14:40.466Z,17.40
2018-10-05T01:17:08.635Z,11.97
2018-10-05T01:19:38.303Z,17.30
2018-10-05T01:22:06.541Z,16.30
2018-10-05T01:24:34.742Z,17.23
2018-10-05T01:27:02.922Z,16.27
2018-10-05T01:29:31.060Z,16.50
2018-10-05T01:31:59.198Z,17.67
2018-10-05T01:34:27.366Z,17.03
2018-10-05T01:36:55.494Z,16.90
2018-10-05T01:39:23.623Z,16.23
2018-10-05T01:41:51.890Z,17.03
2018-10-05T01:44:20.023Z,16.10
2018-10-05T01:46:48.158Z,16.13
2018-10-05T01:49:16.295Z,16.73
2018-10-05T01:51:45.386Z,16.50
2018-10-05T01:54:13.512Z,17.10
2018-10-05T01:56:41.646Z,17.73
2018-10-05T01:59:09.809Z,16.33
2018-10-05T02:01:37.936Z,17.10
2018-10-05T02:04:06.062Z,16.50
2018-10-05T02:06:34.186Z,16.47
2018-10-05T02:09:02.302Z,16.90
2018-10-05T02:11:30.432Z,16.47
2018-10-05T02:13:58.547Z,17.73
2018-10-05T02:16:26.678Z,17.77
2018-10-05T02:18:54.798Z,17.20
2018-10-05T02:21:22.951Z,16.63
2018-10-05T02:23:51.073Z,18.03
2018-10-05T02:26:19.215Z,17.07
2018-10-05T02:28:47.359Z,18.60
2018-10-05T02:31:15.552Z,17.43
2018-10-05T02:33:43.703Z,17.10
2018-10-05T02:36:11.832Z,17.97
2018-10-05T02:38:40.032Z,17.47
2018-10-05T02:41:08.158Z,18.13
2018-10-05T02:43:36.295Z,17.30
2018-10-05T02:46:04.426Z,17.23
2018-10-05T02:48:32.568Z,17.43
2018-10-05T02:51:00.699Z,17.43
2018-10-05T02:53:28.827Z,19.37
2018-10-05T02:55:57.006Z,19.17
2018-10-05T02:58:25.154Z,19.10
2018-10-05T03:01:04.694Z,18.10
2018-10-05T03:03:32.830Z,16.97
2018-10-05T03:06:07.687Z,17.40
2018-10-05T03:08:35.819Z,17.50
2018-10-05T03:11:03.982Z,17.87
2018-10-05T03:13:32.140Z,17.80
2018-10-05T03:16:00.322Z,18.93
2018-10-05T03:18:28.455Z,17.03
2018-10-05T03:20:56.627Z,17.77
2018-10-05T03:23:24.750Z,18.27
2018-10-05T03:25:52.883Z,18.63
2018-10-05T03:28:21.010Z,17.83
2018-10-05T03:30:49.144Z,18.00
2018-10-05T03:33:17.270Z,17.50
2018-10-05T03:35:45.403Z,17.93
2018-10-05T03:38:13.538Z,17.57
2018-10-05T03:40:41.715Z,17.07
2018-10-05T03:43:09.863Z,18.43
2018-10-05T03:45:38.011Z,17.63
2018-10-05T03:48:06.322Z,18.50
2018-10-05T03:50:34.501Z,17.60
2018-10-05T03:53:02.816Z,18.83
2018-10-05T03:55:30.950Z,19.17
2018-10-05T03:57:59.060Z,19.87
2018-10-05T04:00:27.315Z,18.53
2018-10-05T04:02:55.466Z,19.60
2018-10-05T04:05:23.643Z,18.70
2018-10-05T04:07:51.913Z,18.73
2018-10-05T04:10:20.040Z,19.20
2018-10-05T04:12:48.242Z,18.73
2018-10-05T04:15:16.378Z,19.17
2018-10-05T04:17:44.519Z,19.37
2018-10-05T04:20:12.935Z,19.90
2018-10-05T04:22:41.119Z,20.33
2018-10-05T04:25:09.277Z,18.20
2018-10-05T04:27:37.413Z,20.27
2018-10-05T04:30:05.563Z,19.30
2018-10-05T04:32:33.678Z,19.67
2018-10-05T04:35:01.818Z,19.67
2018-10-05T04:37:29.950Z,19.40
2018-10-05T04:39:58.099Z,19.37
2018-10-05T04:42:26.232Z,20.20
2018-10-05T04:44:54.362Z,19.53
2018-10-05T04:47:22.532Z,19.77
2018-10-05T04:49:50.666Z,19.03
2018-10-05T04:52:18.820Z,17.70
2018-10-05T04:54:46.947Z,18.50
2018-10-05T04:57:15.094Z,20.10
2018-10-05T04:59:43.223Z,18.13
2018-10-05T05:02:11.374Z,17.87
2018-10-05T05:04:39.532Z,18.43
2018-10-05T05:07:07.805Z,18.30
2018-10-05T05:09:36.065Z,18.80
2018-10-05T05:12:04.349Z,18.80
2018-10-05T05:14:32.516Z,18.30
2018-10-05T05:17:00.684Z,18.17
2018-10-05T05:19:28.907Z,17.60
2018-10-05T05:21:57.027Z,17.13
2018-10-05T05:24:25.239Z,16.67
2018-10-05T05:26:53.339Z,16.13
2018-10-05T05:29:21.479Z,16.03
2018-10-05T05:31:49.602Z,15.43
2018-10-05T05:34:17.731Z,16.30
2018-10-05T05:36:45.866Z,16.50
2018-10-05T05:39:14.000Z,15.53
2018-10-05T05:41:42.142Z,14.10
2018-10-05T05:44:10.330Z,15.70
2018-10-05T05:46:38.453Z,14.97
2018-10-05T05:49:06.639Z,13.60
2018-10-05T05:51:34.862Z,14.60
2018-10-05T05:54:03.018Z,14.67
2018-10-05T05:56:31.171Z,14.40
2018-10-05T05:58:59.304Z,13.83
2018-10-05T06:01:27.435Z,14.83
2018-10-05T06:03:55.661Z,14.43
2018-10-05T06:06:23.748Z,14.33
2018-10-05T06:08:51.939Z,14.30
2018-10-05T06:11:20.075Z,15.13
2018-10-05T06:13:48.211Z,13.90
2018-10-05T06:16:16.358Z,13.37
2018-10-05T06:18:44.542Z,13.70
2018-10-05T06:21:12.686Z,14.13
2018-10-05T06:23:40.843Z,13.23
2018-10-05T06:26:09.099Z,13.23
2018-10-05T06:28:37.235Z,13.73
2018-10-05T06:31:05.642Z,13.37
2018-10-05T06:33:33.733Z,13.97
2018-10-05T06:36:01.890Z,13.93
2018-10-05T06:38:30.058Z,13.37
2018-10-05T06:40:58.227Z,13.17
2018-10-05T06:43:26.377Z,12.60
2018-10-05T06:45:54.502Z,13.03
2018-10-05T06:48:22.663Z,12.43
2018-10-05T06:50:50.828Z,12.27
2018-10-05T06:53:18.959Z,12.00
2018-10-05T06:55:47.095Z,12.20
2018-10-05T06:58:15.219Z,11.27
2018-10-05T07:00:43.403Z,11.20
2018-10-05T07:03:11.535Z,11.40
2018-10-05T07:05:39.663Z,11.47
2018-10-05T07:08:07.812Z,10.70
2018-10-05T07:10:35.976Z,11.47
2018-10-05T07:13:04.125Z,11.27
2018-10-05T07:15:32.284Z,11.17
2018-10-05T07:18:00.422Z,11.17
2018-10-05T07:20:28.719Z,11.00
2018-10-05T07:22:56.850Z,11.37
2018-10-05T07:25:25.112Z,10.63
2018-10-05T07:27:53.247Z,11.00
2018-10-05T07:30:21.366Z,12.10
2018-10-05T07:32:49.519Z,11.33
2018-10-05T07:35:17.667Z,11.00
2018-10-05T07:37:45.827Z,10.63
2018-10-05T07:40:13.962Z,11.90
2018-10-05T07:42:42.126Z,10.83
2018-10-05T07:45:10.270Z,10.07
2018-10-05T07:47:38.406Z,11.33
2018-10-05T07:50:06.537Z,11.17
2018-10-05T07:52:35.079Z,11.37
2018-10-05T07:55:03.232Z,11.30
2018-10-05T07:57:31.428Z,9.47
2018-10-05T07:59:59.583Z,9.63
2018-10-05T08:02:27.724Z,10.63
2018-10-05T08:04:55.858Z,10.83
2018-10-05T08:07:24.000Z,10.60
2018-10-05T08:09:52.123Z,9.43
2018-10-05T08:12:20.248Z,10.73
2018-10-05T08:14:48.379Z,10.03
2018-10-05T08:17:16.571Z,10.70
2018-10-05T08:19:44.717Z,10.70
2018-10-05T08:22:12.869Z,10.70
2018-10-05T08:24:41.022Z,10.00
2018-10-05T08:27:09.179Z,10.40
2018-10-05T08:29:37.314Z,9.43
2018-10-05T08:32:05.439Z,9.23
2018-10-05T08:34:33.628Z,8.90
2018-10-05T08:37:01.714Z,10.77
2018-10-05T08:39:29.865Z,9.23
2018-10-05T08:41:57.991Z,9.70
2018-10-05T08:44:26.152Z,10.20
2018-10-05T08:46:54.283Z,11.07
2018-10-05T08:49:22.415Z,9.00
2018-10-05T08:51:50.587Z,9.83
2018-10-05T08:54:18.710Z,9.60
2018-10-05T08:56:46.858Z,9.43
2018-10-05T08:59:15.007Z,9.30
2018-10-05T09:01:43.175Z,8.93
2018-10-05T09:04:11.374Z,8.40
2018-10-05T09:06:39.490Z,7.37
2018-10-05T09:09:07.877Z,8.57
2018-10-05T09:11:36.020Z,8.33
2018-10-05T09:14:04.159Z,8.67
2018-10-05T09:16:32.290Z,8.87
2018-10-05T09:19:00.442Z,8.70
2018-10-05T09:21:28.626Z,8.87
2018-10-05T09:23:56.768Z,8.23
2018-10-05T09:26:24.886Z,8.00
2018-10-05T09:28:53.023Z,8.27
2018-10-05T09:31:21.268Z,8.40
2018-10-05T09:33:49.606Z,8.90
2018-10-05T09:36:17.744Z,8.23
2018-10-05T09:38:46.216Z,8.30
2018-10-05T09:41:14.393Z,9.00
2018-10-05T09:43:42.572Z,8.70
2018-10-05T09:46:10.723Z,9.27
2018-10-05T09:48:38.861Z,9.10
2018-10-05T09:51:06.999Z,7.47
2018-10-05T09:53:35.152Z,7.97
2018-10-05T09:56:03.526Z,8.97
2018-10-05T09:58:31.691Z,9.33
2018-10-05T10:01:05.260Z,8.17
2018-10-05T10:03:34.942Z,7.90
2018-10-05T10:06:03.641Z,7.33
2018-10-05T10:08:31.798Z,7.70
2018-10-05T10:10:59.926Z,8.13
2018-10-05T10:13:28.071Z,7.37
2018-10-05T10:15:56.346Z,7.10
2018-10-05T10:18:24.499Z,7.90
2018-10-05T10:20:52.640Z,7.57
2018-10-05T10:23:20.777Z,6.47
2018-10-05T10:25:48.902Z,6.87
2018-10-05T10:28:17.164Z,6.40
2018-10-05T10:30:45.299Z,6.40
2018-10-05T10:33:13.422Z,6.00
2018-10-05T10:35:41.548Z,6.00
2018-10-05T10:38:09.695Z,6.70
2018-10-05T10:40:37.821Z,6.17
2018-10-05T10:43:06.095Z,5.77
2018-10-05T10:45:34.242Z,6.00
2018-10-05T10:48:02.374Z,5.53
2018-10-05T10:50:30.490Z,5.60
2018-10-05T10:52:58.651Z,5.37
2018-10-05T10:55:26.803Z,6.50
2018-10-05T10:57:54.923Z,6.47
2018-10-05T11:00:23.085Z,6.37
2018-10-05T11:02:51.226Z,6.20
2018-10-05T11:05:19.363Z,5.70
2018-10-05T11:07:47.579Z,5.37
2018-10-05T11:10:15.695Z,5.67
2018-10-05T11:12:43.898Z,5.27
2018-10-05T11:15:12.069Z,3.40
2018-10-05T11:17:40.171Z,5.43
2018-10-05T11:20:08.282Z,5.83
2018-10-05T11:22:36.394Z,5.77
2018-10-05T11:25:04.683Z,5.10
2018-10-05T11:27:32.787Z,5.87
2018-10-05T11:30:00.966Z,6.13
2018-10-05T11:32:29.083Z,5.03
2018-10-05T11:34:57.265Z,5.60
2018-10-05T11:37:25.466Z,4.20
2018-10-05T11:39:53.579Z,3.90
2018-10-05T11:51:30.470Z,4.20
2018-10-05T11:53:58.642Z,4.30
2018-10-05T11:56:26.855Z,4.60
2018-10-05T11:58:55.090Z,4.20
2018-10-05T12:01:23.614Z,3.23
2018-10-05T12:03:52.175Z,2.77
2018-10-05T12:06:20.327Z,2.70
2018-10-05T12:08:48.543Z,3.20
2018-10-05T12:11:16.863Z,3.00
2018-10-05T12:13:45.114Z,3.40
2018-10-05T12:16:13.334Z,3.57
2018-10-05T12:18:41.598Z,3.33
2018-10-05T12:21:09.978Z,3.20
2018-10-05T12:23:38.163Z,3.50
2018-10-05T12:26:06.374Z,3.40
2018-10-05T12:28:34.536Z,3.57
2018-10-05T12:31:02.749Z,3.40
2018-10-05T12:33:30.939Z,3.50
2018-10-05T12:35:59.184Z,2.70
2018-10-05T12:38:27.418Z,3.00
2018-10-05T12:40:55.551Z,3.57
2018-10-05T12:43:23.748Z,3.00
2018-10-05T12:45:51.904Z,2.73
2018-10-05T12:48:20.090Z,2.47
2018-10-05T12:50:48.247Z,2.60
2018-10-05T12:53:16.421Z,2.20
2018-10-05T12:55:44.644Z,2.63
2018-10-05T12:58:12.910Z,2.57
2018-10-05T13:00:41.026Z,1.90
2018-10-05T13:03:09.219Z,2.07
2018-10-05T13:05:37.384Z,1.80
2018-10-05T13:08:05.667Z,1.90
2018-10-05T13:10:33.867Z,1.60
2018-10-05T13:13:02.095Z,2.00
2018-10-05T13:15:30.424Z,4.03
2018-10-05T13:17:58.845Z,2.00
2018-10-05T13:20:27.061Z,1.50
2018-10-05T13:22:55.229Z,1.67
2018-10-05T13:25:23.415Z,1.60
2018-10-05T13:27:51.630Z,1.70
2018-10-05T13:30:19.790Z,1.47
2018-10-05T13:32:47.948Z,1.70
2018-10-05T13:35:16.143Z,1.80
2018-10-05T13:37:44.338Z,1.60
2018-10-05T13:40:12.462Z,1.47
2018-10-05T13:42:40.665Z,1.80
2018-10-05T13:45:08.861Z,1.87
2018-10-05T13:47:37.008Z,2.20
2018-10-05T13:50:05.483Z,2.00
2018-10-05T13:52:33.614Z,1.73
2018-10-05T13:55:01.795Z,2.20
2018-10-05T13:57:29.929Z,1.90
2018-10-05T13:59:58.134Z,1.73
2018-10-05T14:02:26.310Z,2.33
2018-10-05T14:04:54.507Z,2.03
2018-10-05T14:07:22.731Z,1.63
2018-10-05T14:09:51.752Z,1.70
2018-10-05T14:12:20.017Z,1.87
2018-10-05T14:14:48.286Z,2.00
2018-10-05T14:17:16.478Z,1.97
2018-10-05T14:19:44.751Z,1.90
2018-10-05T14:22:12.966Z,2.17
2018-10-05T14:24:41.109Z,1.97
2018-10-05T14:27:09.311Z,2.30
2018-10-05T14:29:37.505Z,2.40
2018-10-05T14:32:05.763Z,2.23
2018-10-05T14:34:33.898Z,2.27
2018-10-05T14:37:02.039Z,2.00
2018-10-05T14:39:30.231Z,2.10
2018-10-05T14:41:58.384Z,2.00
2018-10-05T14:44:26.549Z,2.17
2018-10-05T14:46:54.734Z,2.30
2018-10-05T14:49:22.903Z,2.07
2018-10-05T14:51:51.154Z,2.40
2018-10-05T14:54:19.344Z,2.40
2018-10-05T14:56:47.503Z,2.30
2018-10-05T14:59:15.687Z,1.80
2018-10-05T15:01:43.935Z,2.17
2018-10-05T15:04:12.133Z,2.10
2018-10-05T15:06:40.273Z,1.87
2018-10-05T15:09:08.426Z,1.93
2018-10-05T15:11:36.570Z,2.30
2018-10-05T15:14:04.754Z,2.37
2018-10-05T15:16:32.914Z,2.47
2018-10-05T15:19:01.039Z,2.27
2018-10-05T15:21:29.225Z,2.23
2018-10-05T15:23:57.449Z,2.00
2018-10-05T15:26:25.582Z,1.87
2018-10-05T15:28:53.738Z,2.17
2018-10-05T15:31:21.891Z,2.30
2018-10-05T15:33:50.143Z,2.03
2018-10-05T15:36:18.293Z,2.23
2018-10-05T15:38:46.492Z,3.43
2018-10-05T15:41:14.662Z,2.57
2018-10-05T15:43:42.797Z,2.63
2018-10-05T15:46:11.764Z,2.60
2018-10-05T15:48:39.937Z,2.40
2018-10-05T15:51:08.087Z,3.27
2018-10-05T15:53:36.430Z,2.77
2018-10-05T15:56:04.605Z,2.50
2018-10-05T15:58:32.788Z,2.57
2018-10-05T16:01:01.010Z,3.00
2018-10-05T16:03:29.237Z,2.70
2018-10-05T16:05:57.416Z,2.77
2018-10-05T16:08:25.551Z,2.50
2018-10-05T16:10:53.683Z,2.77
2018-10-05T16:13:21.818Z,2.80
2018-10-05T16:15:49.963Z,2.50
2018-10-05T16:18:18.230Z,2.90
2018-10-05T16:20:46.346Z,2.87
2018-10-05T16:23:14.507Z,2.70
2018-10-05T16:25:42.670Z,2.53
2018-10-05T16:28:10.866Z,2.90
2018-10-05T16:30:39.054Z,3.00
2018-10-05T16:33:07.239Z,3.13
2018-10-05T16:35:35.390Z,2.80
2018-10-05T16:38:03.530Z,3.33
2018-10-05T16:40:31.679Z,2.83
2018-10-05T16:42:59.856Z,2.73
2018-10-05T16:45:28.112Z,2.97
2018-10-05T16:47:58.137Z,3.10
2018-10-05T16:50:26.307Z,2.67
2018-10-05T16:52:54.471Z,2.87
2018-10-05T16:55:22.923Z,3.07
2018-10-05T16:57:51.068Z,3.40
2018-10-05T17:00:19.202Z,2.90
2018-10-05T17:02:47.387Z,2.60
2018-10-05T17:05:15.597Z,3.60
2018-10-05T17:07:43.786Z,3.27
2018-10-05T17:10:11.906Z,3.17
2018-10-05T17:12:40.047Z,2.93
2018-10-05T17:15:08.228Z,3.20
2018-10-05T17:17:36.398Z,3.13
2018-10-05T17:20:04.565Z,3.03
2018-10-05T17:22:32.715Z,3.60
2018-10-05T17:25:00.975Z,3.57
2018-10-05T17:27:29.173Z,3.40
2018-10-05T17:29:57.307Z,3.57
2018-10-05T17:32:25.486Z,2.90
2018-10-05T17:34:53.675Z,3.00
2018-10-05T17:37:21.767Z,4.13
2018-10-05T17:39:49.946Z,3.87
2018-10-05T17:42:18.096Z,3.30
2018-10-05T17:44:46.260Z,3.87
2018-10-05T17:47:14.423Z,3.37
2018-10-05T17:49:42.578Z,4.03
2018-10-05T17:52:10.759Z,3.80
2018-10-05T17:54:38.887Z,3.90
2018-10-05T17:57:07.042Z,3.83
2018-10-05T17:59:35.201Z,3.93
2018-10-05T18:02:03.379Z,3.83
2018-10-05T18:04:31.531Z,3.80
2018-10-05T18:06:59.770Z,4.13
2018-10-05T18:09:28.044Z,3.73
2018-10-05T18:11:56.212Z,3.83
2018-10-05T18:14:24.369Z,4.30
2018-10-05T18:16:52.491Z,4.00
2018-10-05T18:19:20.672Z,8.93
2018-10-05T18:21:48.848Z,9.23
2018-10-05T18:24:17.023Z,8.53
2018-10-05T18:26:45.187Z,6.17
2018-10-05T18:29:13.327Z,4.93
2018-10-05T18:31:41.464Z,4.30
2018-10-05T18:34:09.650Z,4.40
2018-10-05T18:36:37.776Z,4.43
2018-10-05T18:39:07.870Z,4.80
2018-10-05T18:41:36.075Z,4.57
2018-10-05T18:44:04.264Z,4.53
2018-10-05T18:46:32.387Z,5.63
2018-10-05T18:49:00.558Z,5.10
2018-10-05T18:51:28.674Z,4.60
2018-10-05T18:53:56.810Z,4.37
2018-10-05T18:57:38.966Z,5.10
2018-10-05T19:00:07.181Z,4.33
2018-10-05T19:02:35.331Z,4.13
2018-10-05T19:05:03.487Z,4.50
2018-10-05T19:07:31.632Z,4.93
2018-10-05T19:09:59.766Z,5.13
2018-10-05T19:12:27.930Z,4.97
2018-10-05T19:14:56.078Z,5.20
2018-10-05T19:17:24.215Z,6.53
2018-10-05T19:19:52.366Z,5.83
2018-10-05T19:22:20.519Z,5.30
2018-10-05T19:24:48.687Z,5.43
2018-10-05T19:27:16.874Z,5.00
2018-10-05T19:29:45.066Z,5.17
2018-10-05T19:32:13.207Z,5.33
2018-10-05T19:34:41.364Z,6.80
2018-10-05T19:37:09.519Z,4.63
2018-10-05T19:39:37.687Z,5.27
2018-10-05T19:42:05.855Z,5.73
2018-10-05T19:44:34.018Z,5.80
2018-10-05T19:47:02.167Z,5.77
2018-10-05T19:49:30.310Z,5.80
2018-10-05T19:51:58.450Z,5.50
2018-10-05T19:54:26.657Z,5.43
2018-10-05T19:56:54.807Z,6.03
2018-10-05T19:59:22.964Z,5.83
2018-10-05T20:01:51.193Z,5.27
2018-10-05T20:04:19.322Z,5.33
2018-10-05T20:06:47.472Z,6.30
2018-10-05T20:09:15.666Z,5.43
2018-10-05T20:11:43.799Z,5.63
2018-10-05T20:14:11.946Z,4.90
2018-10-05T20:16:40.083Z,4.43
2018-10-05T20:19:08.245Z,5.20
2018-10-05T20:21:36.371Z,4.57
2018-10-05T20:24:04.515Z,4.80
2018-10-05T20:26:32.643Z,5.53
2018-10-05T20:29:00.810Z,5.30
2018-10-05T20:31:28.958Z,5.07
2018-10-05T20:33:57.102Z,4.53
2018-10-05T20:36:25.366Z,4.53
2018-10-05T20:38:53.499Z,5.10
2018-10-05T20:41:21.872Z,4.73
2018-10-05T20:43:50.012Z,4.87
2018-10-05T20:46:18.150Z,5.00
2018-10-05T20:48:46.283Z,4.87
2018-10-05T20:51:14.423Z,5.00
2018-10-05T20:53:42.546Z,4.60
2018-10-05T20:56:10.702Z,4.70
2018-10-05T20:58:38.835Z,4.53
2018-10-05T21:01:06.986Z,5.97
2018-10-05T21:03:35.131Z,4.53
2018-10-05T21:06:03.290Z,7.60
2018-10-05T21:08:31.489Z,4.90
2018-10-05T21:10:59.631Z,4.37
2018-10-05T21:13:27.761Z,4.60
2018-10-05T21:15:55.914Z,4.47
2018-10-05T21:18:24.074Z,4.43
2018-10-05T21:20:52.205Z,4.50
2018-10-05T21:23:20.331Z,4.60
2018-10-05T21:25:48.484Z,5.10
2018-10-05T21:28:16.646Z,4.27
2018-10-05T21:30:44.835Z,4.70
2018-10-05T21:33:13.056Z,4.30
2018-10-05T21:35:41.252Z,4.37
2018-10-05T21:38:09.356Z,4.67
2018-10-05T21:40:37.515Z,4.47
2018-10-05T21:43:05.715Z,4.90
2018-10-05T21:45:33.851Z,4.93
2018-10-05T21:48:01.984Z,4.73
2018-10-05T21:50:30.116Z,4.50
2018-10-05T21:52:58.286Z,4.33
2018-10-05T21:55:26.463Z,4.03
2018-10-05T21:57:54.598Z,4.30
2018-10-05T22:00:22.812Z,4.30
2018-10-05T22:02:50.959Z,4.80
2018-10-05T22:05:19.091Z,4.60
2018-10-05T22:07:47.341Z,4.77
2018-10-05T22:10:15.497Z,4.07
2018-10-05T22:12:43.635Z,4.60
2018-10-05T22:15:11.770Z,6.53
2018-10-05T22:17:39.930Z,4.53
2018-10-05T22:20:08.088Z,7.37
2018-10-05T22:22:36.262Z,4.70
2018-10-05T22:25:04.448Z,5.07
2018-10-05T22:27:32.604Z,5.17
2018-10-05T22:30:00.735Z,5.50
2018-10-05T22:32:28.882Z,4.50
2018-10-05T22:34:57.015Z,4.60
2018-10-05T22:37:25.170Z,4.87
2018-10-05T22:39:53.323Z,4.90
2018-10-05T22:42:21.462Z,4.90
2018-10-05T22:44:49.898Z,4.40
2018-10-05T22:47:18.023Z,4.70
2018-10-05T22:49:46.180Z,4.60
2018-10-05T22:52:14.349Z,4.80
2018-10-05T22:54:42.526Z,4.83
2018-10-05T22:57:10.659Z,5.43
2018-10-05T22:59:38.835Z,4.87
2018-10-05T23:02:07.043Z,4.60
2018-10-05T23:04:35.255Z,5.03
2018-10-05T23:07:03.451Z,5.17
2018-10-05T23:09:31.607Z,4.67
2018-10-05T23:11:59.781Z,4.50
2018-10-05T23:14:27.902Z,4.90
2018-10-05T23:16:56.093Z,4.90
2018-10-05T23:19:24.271Z,5.60
2018-10-05T23:21:52.410Z,5.33
2018-10-05T23:24:20.605Z,5.57
2018-10-05T23:26:48.791Z,5.30
2018-10-05T23:29:16.926Z,5.07
2018-10-05T23:31:45.071Z,5.47
2018-10-05T23:34:13.291Z,5.97
2018-10-05T23:36:41.436Z,5.27
2018-10-05T23:39:10.937Z,5.07
2018-10-05T23:41:39.134Z,5.60
2018-10-05T23:44:07.407Z,6.03
2018-10-05T23:46:35.686Z,5.37
2018-10-05T23:49:03.826Z,5.77
2018-10-05T23:51:31.958Z,5.77
2018-10-05T23:54:00.327Z,5.40
2018-10-05T23:56:28.494Z,5.50
2018-10-05T23:58:56.980Z,5.20
